Pagrindinis puslapis
METAR-TAF:

METAR-TAF

Oro uostai :

Notodden, Norvegija

platuma: 59-34N, ilguma: 009-13E, Aukštis: 19 m

Dabartinis oras

Ataskaita buvo paskelbta 51 minutes, ne 07:50 UTC
Ramus vėjas
Temperatūra 7°C
Drėgmė 87%
Slėgis 1026 hPa
Matomumas 10 km arba daugiau
nėra debesų žemiau 1500 m ir nėra kamuolinių lietaus debesų

METAR: ENNO 180750Z 00000KT CAVOK 07/05 Q1026

Laikas: 10:41 (08:41 UTC)

Prognozė

Ataskaita buvo paskelbta 3 valandos ir 41 minutes, ne 05:00 UTC
Prognozė galioja nuo 18 metu 06 UTC su 18 metu 15 UTC
Vėjas 3 kt nuo kintamojo kryptimis
Matomumas 10 km arba daugiau
nėra debesų žemiau 1500 m ir nėra kamuolinių lietaus debesų

TAF: ENNO 180500Z 1806/1815 VRB03KT CAVOK

Orai ataskaitas ir orų prognozės (METAR, TAF).

turimą stotys yra geltonos ir raudonos taškus žemėlapyje.

Perkelti pele per norėdami pamatyti stoties vardą.

Tada spustelėkite, norėdami matyti oro stebėjimo ir prognozės.

Norėdami pakeisti žemėlapį: spustelėkite ant žalios mygtukų su juodo kryžiaus žemyn,; žalią mygtuką su brūkšneliu, jei norite nutolinti; arba žalių rodyklių gretimoms žemėlapius.


METAR-TAF: